sensor_id;sensor_type;location;lat;lon;timestamp;temperature;humidity
2851;DHT22;1433;49.976;8.342;2023-02-02T00:01:41;6.80;99.90
2851;DHT22;1433;49.976;8.342;2023-02-02T00:04:14;6.80;99.90
2851;DHT22;1433;49.976;8.342;2023-02-02T00:06:44;6.80;99.90
2851;DHT22;1433;49.976;8.342;2023-02-02T00:09:14;6.90;99.90
2851;DHT22;1433;49.976;8.342;2023-02-02T00:11:43;7.00;99.90
2851;DHT22;1433;49.976;8.342;2023-02-02T00:14:10;6.90;99.90
2851;DHT22;1433;49.976;8.342;2023-02-02T00:16:52;7.00;99.90
2851;DHT22;1433;49.976;8.342;2023-02-02T00:19:25;7.00;99.90
2851;DHT22;1433;49.976;8.342;2023-02-02T00:21:51;7.10;99.90
2851;DHT22;1433;49.976;8.342;2023-02-02T00:24:19;7.10;99.90
2851;DHT22;1433;49.976;8.342;2023-02-02T00:26:52;7.20;99.90
2851;DHT22;1433;49.976;8.342;2023-02-02T00:29:22;7.20;99.90
2851;DHT22;1433;49.976;8.342;2023-02-02T00:31:51;7.20;99.90
2851;DHT22;1433;49.976;8.342;2023-02-02T00:34:18;7.20;99.90
2851;DHT22;1433;49.976;8.342;2023-02-02T00:36:46;7.30;99.90
2851;DHT22;1433;49.976;8.342;2023-02-02T00:39:30;7.30;99.90
2851;DHT22;1433;49.976;8.342;2023-02-02T00:41:45;7.40;99.90
2851;DHT22;1433;49.976;8.342;2023-02-02T00:44:12;7.40;99.90
2851;DHT22;1433;49.976;8.342;2023-02-02T00:46:57;7.50;99.90
2851;DHT22;1433;49.976;8.342;2023-02-02T00:49:24;7.40;99.90
2851;DHT22;1433;49.976;8.342;2023-02-02T00:51:50;7.50;99.90
2851;DHT22;1433;49.976;8.342;2023-02-02T00:54:16;7.50;99.90
2851;DHT22;1433;49.976;8.342;2023-02-02T00:56:43;7.60;99.90
2851;DHT22;1433;49.976;8.342;2023-02-02T00:59:11;7.60;99.90
2851;DHT22;1433;49.976;8.342;2023-02-02T01:01:37;7.60;99.90
2851;DHT22;1433;49.976;8.342;2023-02-02T01:04:03;7.60;99.90
2851;DHT22;1433;49.976;8.342;2023-02-02T01:06:30;7.50;99.90
2851;DHT22;1433;49.976;8.342;2023-02-02T01:08:56;7.50;99.90
2851;DHT22;1433;49.976;8.342;2023-02-02T01:11:23;7.50;99.90
2851;DHT22;1433;49.976;8.342;2023-02-02T01:13:50;7.50;99.90
2851;DHT22;1433;49.976;8.342;2023-02-02T01:16:17;7.50;99.90
2851;DHT22;1433;49.976;8.342;2023-02-02T01:18:43;7.50;99.90
2851;DHT22;1433;49.976;8.342;2023-02-02T01:21:11;7.50;99.90
2851;DHT22;1433;49.976;8.342;2023-02-02T01:23:37;7.40;99.90
2851;DHT22;1433;49.976;8.342;2023-02-02T01:26:07;7.30;99.90
2851;DHT22;1433;49.976;8.342;2023-02-02T01:28:35;7.10;99.90
2851;DHT22;1433;49.976;8.342;2023-02-02T01:31:08;7.00;99.90
2851;DHT22;1433;49.976;8.342;2023-02-02T01:33:43;7.00;99.90
2851;DHT22;1433;49.976;8.342;2023-02-02T01:36:12;6.90;99.90
2851;DHT22;1433;49.976;8.342;2023-02-02T01:38:40;7.00;99.90
2851;DHT22;1433;49.976;8.342;2023-02-02T01:41:10;6.70;99.90
2851;DHT22;1433;49.976;8.342;2023-02-02T01:46:23;6.60;99.90
2851;DHT22;1433;49.976;8.342;2023-02-02T01:49:01;6.60;99.90
2851;DHT22;1433;49.976;8.342;2023-02-02T01:51:35;6.70;99.90
2851;DHT22;1433;49.976;8.342;2023-02-02T01:54:13;6.70;99.90
2851;DHT22;1433;49.976;8.342;2023-02-02T01:56:45;6.80;99.90
2851;DHT22;1433;49.976;8.342;2023-02-02T01:59:13;6.80;99.90
2851;DHT22;1433;49.976;8.342;2023-02-02T02:01:41;6.80;99.90
2851;DHT22;1433;49.976;8.342;2023-02-02T02:04:08;6.90;99.90
2851;DHT22;1433;49.976;8.342;2023-02-02T02:06:36;6.90;99.90
2851;DHT22;1433;49.976;8.342;2023-02-02T02:09:04;6.90;99.90
2851;DHT22;1433;49.976;8.342;2023-02-02T02:11:32;6.90;99.90
2851;DHT22;1433;49.976;8.342;2023-02-02T02:14:03;6.70;99.90
2851;DHT22;1433;49.976;8.342;2023-02-02T02:29:35;6.80;99.90
2851;DHT22;1433;49.976;8.342;2023-02-02T02:32:33;6.80;99.90
2851;DHT22;1433;49.976;8.342;2023-02-02T02:35:19;6.80;99.90
2851;DHT22;1433;49.976;8.342;2023-02-02T02:40:50;6.80;99.90
2851;DHT22;1433;49.976;8.342;2023-02-02T02:43:27;6.70;99.90
2851;DHT22;1433;49.976;8.342;2023-02-02T02:45:56;6.80;99.90
2851;DHT22;1433;49.976;8.342;2023-02-02T02:48:23;6.80;99.90
2851;DHT22;1433;49.976;8.342;2023-02-02T02:50:49;6.90;99.90
2851;DHT22;1433;49.976;8.342;2023-02-02T02:53:21;6.90;99.90
2851;DHT22;1433;49.976;8.342;2023-02-02T02:58:44;7.00;99.90
2851;DHT22;1433;49.976;8.342;2023-02-02T03:04:04;7.20;99.90
2851;DHT22;1433;49.976;8.342;2023-02-02T03:06:41;7.30;99.90
2851;DHT22;1433;49.976;8.342;2023-02-02T03:09:17;7.30;99.90
2851;DHT22;1433;49.976;8.342;2023-02-02T03:11:47;7.40;99.90
2851;DHT22;1433;49.976;8.342;2023-02-02T03:14:13;7.40;99.90
2851;DHT22;1433;49.976;8.342;2023-02-02T03:16:39;7.40;99.90
2851;DHT22;1433;49.976;8.342;2023-02-02T03:19:06;7.40;99.90
2851;DHT22;1433;49.976;8.342;2023-02-02T03:21:33;7.40;99.90
2851;DHT22;1433;49.976;8.342;2023-02-02T03:24:00;7.50;99.90
2851;DHT22;1433;49.976;8.342;2023-02-02T03:26:26;7.50;99.90
2851;DHT22;1433;49.976;8.342;2023-02-02T03:28:54;7.50;99.90
2851;DHT22;1433;49.976;8.342;2023-02-02T03:31:23;7.50;99.90
2851;DHT22;1433;49.976;8.342;2023-02-02T03:33:51;7.60;99.90
2851;DHT22;1433;49.976;8.342;2023-02-02T03:36:18;7.60;99.90
2851;DHT22;1433;49.976;8.342;2023-02-02T03:38:44;7.60;99.90
2851;DHT22;1433;49.976;8.342;2023-02-02T03:41:10;7.60;99.90
2851;DHT22;1433;49.976;8.342;2023-02-02T03:43:36;7.60;99.90
2851;DHT22;1433;49.976;8.342;2023-02-02T03:46:04;7.70;99.90
2851;DHT22;1433;49.976;8.342;2023-02-02T03:48:35;7.70;99.90
2851;DHT22;1433;49.976;8.342;2023-02-02T03:51:11;7.70;99.90
2851;DHT22;1433;49.976;8.342;2023-02-02T03:53:37;7.70;99.90
2851;DHT22;1433;49.976;8.342;2023-02-02T03:56:04;7.70;99.90
2851;DHT22;1433;49.976;8.342;2023-02-02T03:58:31;7.70;99.90
2851;DHT22;1433;49.976;8.342;2023-02-02T04:01:05;7.70;99.90
2851;DHT22;1433;49.976;8.342;2023-02-02T04:03:32;7.70;99.90
2851;DHT22;1433;49.976;8.342;2023-02-02T04:05:59;7.70;99.90
2851;DHT22;1433;49.976;8.342;2023-02-02T04:08:26;7.70;99.90
2851;DHT22;1433;49.976;8.342;2023-02-02T04:10:53;7.70;99.90
2851;DHT22;1433;49.976;8.342;2023-02-02T04:13:19;7.70;99.90
2851;DHT22;1433;49.976;8.342;2023-02-02T04:15:46;7.70;99.90
2851;DHT22;1433;49.976;8.342;2023-02-02T04:18:12;7.70;99.90
2851;DHT22;1433;49.976;8.342;2023-02-02T04:20:38;7.70;99.90
2851;DHT22;1433;49.976;8.342;2023-02-02T04:23:04;7.70;99.90
2851;DHT22;1433;49.976;8.342;2023-02-02T04:25:31;7.70;99.90
2851;DHT22;1433;49.976;8.342;2023-02-02T04:27:57;7.70;99.90
2851;DHT22;1433;49.976;8.342;2023-02-02T04:30:23;7.60;99.90
2851;DHT22;1433;49.976;8.342;2023-02-02T04:32:50;7.60;99.90
2851;DHT22;1433;49.976;8.342;2023-02-02T04:35:17;7.60;99.90
2851;DHT22;1433;49.976;8.342;2023-02-02T04:37:43;7.60;99.90
2851;DHT22;1433;49.976;8.342;2023-02-02T04:40:10;7.60;99.90
2851;DHT22;1433;49.976;8.342;2023-02-02T04:42:37;7.50;99.90
2851;DHT22;1433;49.976;8.342;2023-02-02T04:45:04;7.50;99.90
2851;DHT22;1433;49.976;8.342;2023-02-02T04:47:31;7.60;99.90
2851;DHT22;1433;49.976;8.342;2023-02-02T04:49:57;7.60;99.90
2851;DHT22;1433;49.976;8.342;2023-02-02T04:52:23;7.60;99.90
2851;DHT22;1433;49.976;8.342;2023-02-02T04:54:49;7.60;99.90
2851;DHT22;1433;49.976;8.342;2023-02-02T04:57:15;7.70;99.90
2851;DHT22;1433;49.976;8.342;2023-02-02T04:59:42;7.70;99.90
2851;DHT22;1433;49.976;8.342;2023-02-02T05:02:08;7.70;99.90
2851;DHT22;1433;49.976;8.342;2023-02-02T05:04:35;7.60;99.90
2851;DHT22;1433;49.976;8.342;2023-02-02T05:07:01;7.60;99.90
2851;DHT22;1433;49.976;8.342;2023-02-02T05:09:27;7.60;99.90
2851;DHT22;1433;49.976;8.342;2023-02-02T05:11:53;7.60;99.90
2851;DHT22;1433;49.976;8.342;2023-02-02T05:14:20;7.60;99.90
2851;DHT22;1433;49.976;8.342;2023-02-02T05:16:46;7.50;99.90
2851;DHT22;1433;49.976;8.342;2023-02-02T05:19:12;7.50;99.90
2851;DHT22;1433;49.976;8.342;2023-02-02T05:21:40;7.40;99.90
2851;DHT22;1433;49.976;8.342;2023-02-02T05:24:07;7.40;99.90
2851;DHT22;1433;49.976;8.342;2023-02-02T05:26:34;7.40;99.90
2851;DHT22;1433;49.976;8.342;2023-02-02T05:29:00;7.30;99.90
2851;DHT22;1433;49.976;8.342;2023-02-02T05:31:26;7.20;99.90
2851;DHT22;1433;49.976;8.342;2023-02-02T05:33:53;7.10;99.90
2851;DHT22;1433;49.976;8.342;2023-02-02T05:36:19;7.10;99.90
2851;DHT22;1433;49.976;8.342;2023-02-02T05:38:45;7.10;99.90
2851;DHT22;1433;49.976;8.342;2023-02-02T05:41:11;7.10;99.90
2851;DHT22;1433;49.976;8.342;2023-02-02T05:43:38;7.10;99.90
2851;DHT22;1433;49.976;8.342;2023-02-02T05:46:04;7.10;99.90
2851;DHT22;1433;49.976;8.342;2023-02-02T05:48:30;7.00;99.90
2851;DHT22;1433;49.976;8.342;2023-02-02T05:51:14;7.00;99.90
2851;DHT22;1433;49.976;8.342;2023-02-02T05:53:50;6.90;99.90
2851;DHT22;1433;49.976;8.342;2023-02-02T05:56:16;6.80;99.90
2851;DHT22;1433;49.976;8.342;2023-02-02T05:58:43;6.70;99.90
2851;DHT22;1433;49.976;8.342;2023-02-02T06:01:11;6.70;99.90
2851;DHT22;1433;49.976;8.342;2023-02-02T06:03:38;6.70;99.90
2851;DHT22;1433;49.976;8.342;2023-02-02T06:06:04;6.70;99.90
2851;DHT22;1433;49.976;8.342;2023-02-02T06:08:30;6.70;99.90
2851;DHT22;1433;49.976;8.342;2023-02-02T06:10:57;6.60;99.90
2851;DHT22;1433;49.976;8.342;2023-02-02T06:13:23;6.70;99.90
2851;DHT22;1433;49.976;8.342;2023-02-02T06:15:50;6.70;99.90
2851;DHT22;1433;49.976;8.342;2023-02-02T06:18:16;6.70;99.90
2851;DHT22;1433;49.976;8.342;2023-02-02T06:20:42;6.60;99.90
2851;DHT22;1433;49.976;8.342;2023-02-02T06:23:08;6.60;99.90
2851;DHT22;1433;49.976;8.342;2023-02-02T06:25:37;6.60;99.90
2851;DHT22;1433;49.976;8.342;2023-02-02T06:28:05;6.50;99.90
2851;DHT22;1433;49.976;8.342;2023-02-02T06:30:32;6.50;99.90
2851;DHT22;1433;49.976;8.342;2023-02-02T06:32:58;6.60;99.90
2851;DHT22;1433;49.976;8.342;2023-02-02T06:35:25;6.70;99.90
2851;DHT22;1433;49.976;8.342;2023-02-02T06:37:52;6.90;99.90
2851;DHT22;1433;49.976;8.342;2023-02-02T06:40:19;7.00;99.90
2851;DHT22;1433;49.976;8.342;2023-02-02T06:42:46;6.90;99.90
2851;DHT22;1433;49.976;8.342;2023-02-02T06:45:13;7.00;99.90
2851;DHT22;1433;49.976;8.342;2023-02-02T06:47:39;7.00;99.90
2851;DHT22;1433;49.976;8.342;2023-02-02T06:50:06;7.00;99.90
2851;DHT22;1433;49.976;8.342;2023-02-02T06:52:33;7.10;99.90
2851;DHT22;1433;49.976;8.342;2023-02-02T06:54:59;7.10;99.90
2851;DHT22;1433;49.976;8.342;2023-02-02T06:57:26;7.10;99.90
2851;DHT22;1433;49.976;8.342;2023-02-02T06:59:52;7.20;99.90
2851;DHT22;1433;49.976;8.342;2023-02-02T07:02:18;7.20;99.90
2851;DHT22;1433;49.976;8.342;2023-02-02T07:04:45;7.20;99.90
2851;DHT22;1433;49.976;8.342;2023-02-02T07:07:11;7.20;99.90
2851;DHT22;1433;49.976;8.342;2023-02-02T07:09:37;7.30;99.90
2851;DHT22;1433;49.976;8.342;2023-02-02T07:12:04;7.20;99.90
2851;DHT22;1433;49.976;8.342;2023-02-02T07:14:30;7.40;99.90
2851;DHT22;1433;49.976;8.342;2023-02-02T07:16:56;7.40;99.90
2851;DHT22;1433;49.976;8.342;2023-02-02T07:19:23;7.50;99.90
2851;DHT22;1433;49.976;8.342;2023-02-02T07:21:49;7.40;99.90
2851;DHT22;1433;49.976;8.342;2023-02-02T07:24:15;7.50;99.90
2851;DHT22;1433;49.976;8.342;2023-02-02T07:26:42;7.40;99.90
2851;DHT22;1433;49.976;8.342;2023-02-02T07:29:11;7.40;99.90
2851;DHT22;1433;49.976;8.342;2023-02-02T07:31:39;7.30;99.90
2851;DHT22;1433;49.976;8.342;2023-02-02T07:34:05;7.40;99.90
2851;DHT22;1433;49.976;8.342;2023-02-02T07:36:32;7.40;99.90
2851;DHT22;1433;49.976;8.342;2023-02-02T07:38:58;7.50;99.90
2851;DHT22;1433;49.976;8.342;2023-02-02T07:41:26;7.60;99.90
2851;DHT22;1433;49.976;8.342;2023-02-02T07:43:53;7.70;99.90
2851;DHT22;1433;49.976;8.342;2023-02-02T07:46:19;7.90;99.90
2851;DHT22;1433;49.976;8.342;2023-02-02T07:48:46;7.90;99.90
2851;DHT22;1433;49.976;8.342;2023-02-02T07:51:15;8.00;99.90
2851;DHT22;1433;49.976;8.342;2023-02-02T07:53:48;7.90;99.90
2851;DHT22;1433;49.976;8.342;2023-02-02T07:56:18;7.80;99.90
2851;DHT22;1433;49.976;8.342;2023-02-02T07:58:47;7.80;99.90
2851;DHT22;1433;49.976;8.342;2023-02-02T08:01:15;7.80;99.90
2851;DHT22;1433;49.976;8.342;2023-02-02T08:03:42;7.90;99.90
2851;DHT22;1433;49.976;8.342;2023-02-02T08:06:17;8.00;99.90
2851;DHT22;1433;49.976;8.342;2023-02-02T08:08:48;8.00;99.90
2851;DHT22;1433;49.976;8.342;2023-02-02T08:11:17;8.00;99.90
2851;DHT22;1433;49.976;8.342;2023-02-02T08:13:50;8.00;99.90
2851;DHT22;1433;49.976;8.342;2023-02-02T08:16:18;8.00;99.90
2851;DHT22;1433;49.976;8.342;2023-02-02T08:18:48;8.00;99.90
2851;DHT22;1433;49.976;8.342;2023-02-02T08:21:18;8.00;99.90
2851;DHT22;1433;49.976;8.342;2023-02-02T08:23:44;7.90;99.90
2851;DHT22;1433;49.976;8.342;2023-02-02T08:26:22;8.00;99.90
2851;DHT22;1433;49.976;8.342;2023-02-02T08:28:53;8.10;99.90
2851;DHT22;1433;49.976;8.342;2023-02-02T08:31:29;8.00;99.90
2851;DHT22;1433;49.976;8.342;2023-02-02T08:33:57;8.00;99.90
2851;DHT22;1433;49.976;8.342;2023-02-02T08:36:25;8.00;99.90
2851;DHT22;1433;49.976;8.342;2023-02-02T08:38:52;8.00;99.90
2851;DHT22;1433;49.976;8.342;2023-02-02T08:41:22;8.00;99.90
2851;DHT22;1433;49.976;8.342;2023-02-02T08:43:49;8.00;99.90
2851;DHT22;1433;49.976;8.342;2023-02-02T08:46:16;8.00;99.90
2851;DHT22;1433;49.976;8.342;2023-02-02T08:48:44;8.10;99.90
2851;DHT22;1433;49.976;8.342;2023-02-02T08:51:13;8.20;99.90
2851;DHT22;1433;49.976;8.342;2023-02-02T08:53:44;8.30;99.90
2851;DHT22;1433;49.976;8.342;2023-02-02T08:56:13;8.30;99.90
2851;DHT22;1433;49.976;8.342;2023-02-02T08:58:45;8.30;99.90
2851;DHT22;1433;49.976;8.342;2023-02-02T09:01:20;8.30;99.90
2851;DHT22;1433;49.976;8.342;2023-02-02T09:03:53;8.30;99.90
2851;DHT22;1433;49.976;8.342;2023-02-02T09:06:25;8.30;99.90
2851;DHT22;1433;49.976;8.342;2023-02-02T09:09:03;8.30;99.90
2851;DHT22;1433;49.976;8.342;2023-02-02T09:11:31;8.30;99.90
2851;DHT22;1433;49.976;8.342;2023-02-02T09:13:59;8.30;99.90
2851;DHT22;1433;49.976;8.342;2023-02-02T09:16:28;8.40;99.90
2851;DHT22;1433;49.976;8.342;2023-02-02T09:18:55;8.50;99.90
2851;DHT22;1433;49.976;8.342;2023-02-02T09:21:22;8.50;99.90
2851;DHT22;1433;49.976;8.342;2023-02-02T09:23:50;8.50;99.90
2851;DHT22;1433;49.976;8.342;2023-02-02T09:26:24;8.50;99.90
2851;DHT22;1433;49.976;8.342;2023-02-02T09:28:54;8.50;99.90
2851;DHT22;1433;49.976;8.342;2023-02-02T09:31:24;8.60;99.90
2851;DHT22;1433;49.976;8.342;2023-02-02T09:33:50;8.70;99.90
2851;DHT22;1433;49.976;8.342;2023-02-02T09:36:19;8.70;99.90
2851;DHT22;1433;49.976;8.342;2023-02-02T09:38:48;8.70;99.90
2851;DHT22;1433;49.976;8.342;2023-02-02T09:50:00;8.80;99.90
2851;DHT22;1433;49.976;8.342;2023-02-02T09:52:54;8.80;99.90
2851;DHT22;1433;49.976;8.342;2023-02-02T09:55:42;8.80;99.90
2851;DHT22;1433;49.976;8.342;2023-02-02T10:03:42;8.90;99.90
2851;DHT22;1433;49.976;8.342;2023-02-02T10:06:48;8.90;99.90
2851;DHT22;1433;49.976;8.342;2023-02-02T10:09:45;8.90;99.90
2851;DHT22;1433;49.976;8.342;2023-02-02T10:12:36;8.90;99.90
2851;DHT22;1433;49.976;8.342;2023-02-02T10:18:07;8.90;99.90
2851;DHT22;1433;49.976;8.342;2023-02-02T10:20:54;8.90;99.90
2851;DHT22;1433;49.976;8.342;2023-02-02T10:23:41;8.90;99.90
2851;DHT22;1433;49.976;8.342;2023-02-02T10:26:29;8.90;99.90
2851;DHT22;1433;49.976;8.342;2023-02-02T10:34:46;9.00;99.90
2851;DHT22;1433;49.976;8.342;2023-02-02T10:43:06;9.00;99.90
2851;DHT22;1433;49.976;8.342;2023-02-02T10:46:04;9.00;99.90
2851;DHT22;1433;49.976;8.342;2023-02-02T10:48:34;9.00;99.90
2851;DHT22;1433;49.976;8.342;2023-02-02T10:51:06;9.00;99.90
2851;DHT22;1433;49.976;8.342;2023-02-02T10:53:39;9.00;99.90
2851;DHT22;1433;49.976;8.342;2023-02-02T10:56:07;9.00;99.90
2851;DHT22;1433;49.976;8.342;2023-02-02T10:58:55;9.00;99.90
2851;DHT22;1433;49.976;8.342;2023-02-02T11:01:26;9.00;99.90
2851;DHT22;1433;49.976;8.342;2023-02-02T11:03:52;9.00;99.90
2851;DHT22;1433;49.976;8.342;2023-02-02T11:06:22;9.00;99.90
2851;DHT22;1433;49.976;8.342;2023-02-02T11:09:09;8.90;99.90
2851;DHT22;1433;49.976;8.342;2023-02-02T11:11:40;8.90;99.90
2851;DHT22;1433;49.976;8.342;2023-02-02T11:14:16;9.00;99.90
2851;DHT22;1433;49.976;8.342;2023-02-02T11:17:03;9.10;99.90
2851;DHT22;1433;49.976;8.342;2023-02-02T11:19:32;9.20;99.90
2851;DHT22;1433;49.976;8.342;2023-02-02T11:22:01;9.30;99.90
2851;DHT22;1433;49.976;8.342;2023-02-02T11:24:44;9.40;99.90
2851;DHT22;1433;49.976;8.342;2023-02-02T11:27:16;9.60;99.90
2851;DHT22;1433;49.976;8.342;2023-02-02T11:29:47;9.50;99.90
2851;DHT22;1433;49.976;8.342;2023-02-02T11:32:31;9.50;99.90
2851;DHT22;1433;49.976;8.342;2023-02-02T11:40:34;9.60;99.90
2851;DHT22;1433;49.976;8.342;2023-02-02T11:43:03;9.60;99.90
2851;DHT22;1433;49.976;8.342;2023-02-02T11:45:37;9.60;99.90
2851;DHT22;1433;49.976;8.342;2023-02-02T11:50:54;9.60;99.90
2851;DHT22;1433;49.976;8.342;2023-02-02T11:53:28;9.50;99.90
2851;DHT22;1433;49.976;8.342;2023-02-02T11:56:00;9.50;99.90
2851;DHT22;1433;49.976;8.342;2023-02-02T12:01:32;9.60;99.90
2851;DHT22;1433;49.976;8.342;2023-02-02T12:04:24;10.00;99.90
2851;DHT22;1433;49.976;8.342;2023-02-02T12:06:44;10.20;99.90
2851;DHT22;1433;49.976;8.342;2023-02-02T12:09:13;10.00;99.90
2851;DHT22;1433;49.976;8.342;2023-02-02T12:23:20;10.00;99.90
2851;DHT22;1433;49.976;8.342;2023-02-02T12:31:27;10.30;99.90
2851;DHT22;1433;49.976;8.342;2023-02-02T12:42:49;10.40;99.90
2851;DHT22;1433;49.976;8.342;2023-02-02T12:54:11;10.20;99.90
2851;DHT22;1433;49.976;8.342;2023-02-02T12:56:53;9.90;99.90
2851;DHT22;1433;49.976;8.342;2023-02-02T13:02:47;9.60;99.90
2851;DHT22;1433;49.976;8.342;2023-02-02T13:11:23;9.80;99.90
2851;DHT22;1433;49.976;8.342;2023-02-02T13:13:57;9.80;99.90
2851;DHT22;1433;49.976;8.342;2023-02-02T13:16:30;9.40;99.90
2851;DHT22;1433;49.976;8.342;2023-02-02T13:19:06;9.20;99.90
2851;DHT22;1433;49.976;8.342;2023-02-02T13:21:35;9.10;99.90
2851;DHT22;1433;49.976;8.342;2023-02-02T13:24:04;9.00;99.90
2851;DHT22;1433;49.976;8.342;2023-02-02T13:26:41;9.10;99.90
2851;DHT22;1433;49.976;8.342;2023-02-02T13:32:20;9.40;99.90
2851;DHT22;1433;49.976;8.342;2023-02-02T13:37:50;9.60;99.90
2851;DHT22;1433;49.976;8.342;2023-02-02T13:40:27;9.60;99.90
2851;DHT22;1433;49.976;8.342;2023-02-02T13:49:29;9.50;99.90
2851;DHT22;1433;49.976;8.342;2023-02-02T14:01:18;9.60;99.90
2851;DHT22;1433;49.976;8.342;2023-02-02T14:03:54;9.70;99.90
2851;DHT22;1433;49.976;8.342;2023-02-02T14:06:23;9.80;99.90
2851;DHT22;1433;49.976;8.342;2023-02-02T14:08:59;9.80;99.90
2851;DHT22;1433;49.976;8.342;2023-02-02T14:11:31;9.90;99.90
2851;DHT22;1433;49.976;8.342;2023-02-02T14:14:16;10.00;99.90
2851;DHT22;1433;49.976;8.342;2023-02-02T14:16:58;10.10;99.90
2851;DHT22;1433;49.976;8.342;2023-02-02T14:19:48;10.20;99.90
2851;DHT22;1433;49.976;8.342;2023-02-02T14:28:11;10.10;99.90
2851;DHT22;1433;49.976;8.342;2023-02-02T14:30:38;10.00;99.90
2851;DHT22;1433;49.976;8.342;2023-02-02T14:35:55;10.00;99.90
2851;DHT22;1433;49.976;8.342;2023-02-02T14:41:34;10.00;99.90
2851;DHT22;1433;49.976;8.342;2023-02-02T14:44:32;10.00;99.90
2851;DHT22;1433;49.976;8.342;2023-02-02T14:47:00;10.00;99.90
2851;DHT22;1433;49.976;8.342;2023-02-02T14:49:32;10.00;99.90
2851;DHT22;1433;49.976;8.342;2023-02-02T14:52:01;9.90;99.90
2851;DHT22;1433;49.976;8.342;2023-02-02T14:54:35;9.70;99.90
2851;DHT22;1433;49.976;8.342;2023-02-02T14:57:25;9.60;99.90
2851;DHT22;1433;49.976;8.342;2023-02-02T14:59:53;9.60;99.90
2851;DHT22;1433;49.976;8.342;2023-02-02T15:02:24;9.70;99.90
2851;DHT22;1433;49.976;8.342;2023-02-02T15:08:24;9.20;99.90
2851;DHT22;1433;49.976;8.342;2023-02-02T15:13:30;8.90;99.90
2851;DHT22;1433;49.976;8.342;2023-02-02T15:16:10;8.70;99.90
2851;DHT22;1433;49.976;8.342;2023-02-02T15:18:40;8.50;99.90
2851;DHT22;1433;49.976;8.342;2023-02-02T15:21:12;8.40;99.90
2851;DHT22;1433;49.976;8.342;2023-02-02T15:23:43;8.50;99.90
2851;DHT22;1433;49.976;8.342;2023-02-02T15:26:22;8.80;99.90
2851;DHT22;1433;49.976;8.342;2023-02-02T15:28:59;9.00;99.90
2851;DHT22;1433;49.976;8.342;2023-02-02T15:31:47;9.10;99.90
2851;DHT22;1433;49.976;8.342;2023-02-02T15:34:18;9.30;99.90
2851;DHT22;1433;49.976;8.342;2023-02-02T15:36:58;9.30;99.90
2851;DHT22;1433;49.976;8.342;2023-02-02T15:39:37;9.40;99.90
2851;DHT22;1433;49.976;8.342;2023-02-02T15:42:17;9.40;99.90
2851;DHT22;1433;49.976;8.342;2023-02-02T15:45:04;9.40;99.90
2851;DHT22;1433;49.976;8.342;2023-02-02T15:47:34;9.30;99.90
2851;DHT22;1433;49.976;8.342;2023-02-02T15:50:14;9.30;99.90
2851;DHT22;1433;49.976;8.342;2023-02-02T15:52:33;9.20;99.90
2851;DHT22;1433;49.976;8.342;2023-02-02T15:55:11;9.20;99.90
2851;DHT22;1433;49.976;8.342;2023-02-02T15:57:35;9.20;99.90
2851;DHT22;1433;49.976;8.342;2023-02-02T16:03:13;9.20;99.90
2851;DHT22;1433;49.976;8.342;2023-02-02T16:05:47;9.20;99.90
2851;DHT22;1433;49.976;8.342;2023-02-02T16:08:18;9.30;99.90
2851;DHT22;1433;49.976;8.342;2023-02-02T16:11:05;9.30;99.90
2851;DHT22;1433;49.976;8.342;2023-02-02T16:13:37;9.40;99.90
2851;DHT22;1433;49.976;8.342;2023-02-02T16:16:24;9.30;99.90
2851;DHT22;1433;49.976;8.342;2023-02-02T16:19:04;9.30;99.90
2851;DHT22;1433;49.976;8.342;2023-02-02T16:21:39;9.30;99.90
2851;DHT22;1433;49.976;8.342;2023-02-02T16:24:11;9.20;99.90
2851;DHT22;1433;49.976;8.342;2023-02-02T16:26:40;9.20;99.90
2851;DHT22;1433;49.976;8.342;2023-02-02T16:29:10;9.20;99.90
2851;DHT22;1433;49.976;8.342;2023-02-02T16:31:39;9.20;99.90
2851;DHT22;1433;49.976;8.342;2023-02-02T16:34:12;9.20;99.90
2851;DHT22;1433;49.976;8.342;2023-02-02T16:36:37;9.20;99.90
2851;DHT22;1433;49.976;8.342;2023-02-02T16:39:13;9.20;99.90
2851;DHT22;1433;49.976;8.342;2023-02-02T16:41:36;9.20;99.90
2851;DHT22;1433;49.976;8.342;2023-02-02T16:46:58;9.20;99.90
2851;DHT22;1433;49.976;8.342;2023-02-02T16:49:26;9.10;99.90
2851;DHT22;1433;49.976;8.342;2023-02-02T16:52:14;9.10;99.90
2851;DHT22;1433;49.976;8.342;2023-02-02T16:54:55;9.10;99.90
2851;DHT22;1433;49.976;8.342;2023-02-02T16:57:30;9.20;99.90
2851;DHT22;1433;49.976;8.342;2023-02-02T17:00:00;9.10;99.90
2851;DHT22;1433;49.976;8.342;2023-02-02T17:05:24;9.10;99.90
2851;DHT22;1433;49.976;8.342;2023-02-02T17:07:59;9.20;99.90
2851;DHT22;1433;49.976;8.342;2023-02-02T17:10:35;9.10;99.90
2851;DHT22;1433;49.976;8.342;2023-02-02T17:13:00;9.10;99.90
2851;DHT22;1433;49.976;8.342;2023-02-02T17:15:33;9.10;99.90
2851;DHT22;1433;49.976;8.342;2023-02-02T17:18:02;9.10;99.90
2851;DHT22;1433;49.976;8.342;2023-02-02T17:20:29;9.10;99.90
2851;DHT22;1433;49.976;8.342;2023-02-02T17:22:59;9.10;99.90
2851;DHT22;1433;49.976;8.342;2023-02-02T17:25:35;9.10;99.90
2851;DHT22;1433;49.976;8.342;2023-02-02T17:28:09;9.10;99.90
2851;DHT22;1433;49.976;8.342;2023-02-02T17:30:40;9.10;99.90
2851;DHT22;1433;49.976;8.342;2023-02-02T17:33:12;9.00;99.90
2851;DHT22;1433;49.976;8.342;2023-02-02T17:35:39;9.00;99.90
2851;DHT22;1433;49.976;8.342;2023-02-02T17:38:06;9.00;99.90
2851;DHT22;1433;49.976;8.342;2023-02-02T17:40:32;9.00;99.90
2851;DHT22;1433;49.976;8.342;2023-02-02T17:42:59;9.00;99.90
2851;DHT22;1433;49.976;8.342;2023-02-02T17:45:31;9.00;99.90
2851;DHT22;1433;49.976;8.342;2023-02-02T17:47:59;9.00;99.90
2851;DHT22;1433;49.976;8.342;2023-02-02T17:50:27;9.00;99.90
2851;DHT22;1433;49.976;8.342;2023-02-02T17:52:54;9.00;99.90
2851;DHT22;1433;49.976;8.342;2023-02-02T17:55:23;9.00;99.90
2851;DHT22;1433;49.976;8.342;2023-02-02T17:57:54;9.00;99.90
2851;DHT22;1433;49.976;8.342;2023-02-02T18:00:23;9.00;99.90
2851;DHT22;1433;49.976;8.342;2023-02-02T18:02:54;9.10;99.90
2851;DHT22;1433;49.976;8.342;2023-02-02T18:05:27;9.00;99.90
2851;DHT22;1433;49.976;8.342;2023-02-02T18:07:53;9.00;99.90
2851;DHT22;1433;49.976;8.342;2023-02-02T18:10:19;8.90;99.90
2851;DHT22;1433;49.976;8.342;2023-02-02T18:12:47;9.00;99.90
2851;DHT22;1433;49.976;8.342;2023-02-02T18:15:14;9.00;99.90
2851;DHT22;1433;49.976;8.342;2023-02-02T18:17:41;9.00;99.90
2851;DHT22;1433;49.976;8.342;2023-02-02T18:20:09;8.90;99.90
2851;DHT22;1433;49.976;8.342;2023-02-02T18:22:38;8.90;99.90
2851;DHT22;1433;49.976;8.342;2023-02-02T18:25:04;8.90;99.90
2851;DHT22;1433;49.976;8.342;2023-02-02T18:27:31;8.90;99.90
2851;DHT22;1433;49.976;8.342;2023-02-02T18:29:57;8.90;99.90
2851;DHT22;1433;49.976;8.342;2023-02-02T18:32:23;8.90;99.90
2851;DHT22;1433;49.976;8.342;2023-02-02T18:34:52;8.80;99.90
2851;DHT22;1433;49.976;8.342;2023-02-02T18:37:21;8.80;99.90
2851;DHT22;1433;49.976;8.342;2023-02-02T18:39:49;8.80;99.90
2851;DHT22;1433;49.976;8.342;2023-02-02T18:42:15;8.70;99.90
2851;DHT22;1433;49.976;8.342;2023-02-02T18:44:42;8.70;99.90
2851;DHT22;1433;49.976;8.342;2023-02-02T18:47:08;8.60;99.90
2851;DHT22;1433;49.976;8.342;2023-02-02T18:49:34;8.60;99.90
2851;DHT22;1433;49.976;8.342;2023-02-02T18:52:01;8.50;99.90
2851;DHT22;1433;49.976;8.342;2023-02-02T18:54:28;8.60;99.90
2851;DHT22;1433;49.976;8.342;2023-02-02T18:56:54;8.50;99.90
2851;DHT22;1433;49.976;8.342;2023-02-02T18:59:21;8.50;99.90
2851;DHT22;1433;49.976;8.342;2023-02-02T19:01:47;8.50;99.90
2851;DHT22;1433;49.976;8.342;2023-02-02T19:04:13;8.40;99.90
2851;DHT22;1433;49.976;8.342;2023-02-02T19:06:40;8.40;99.90
2851;DHT22;1433;49.976;8.342;2023-02-02T19:09:24;8.40;99.90
2851;DHT22;1433;49.976;8.342;2023-02-02T19:11:51;8.40;99.90
2851;DHT22;1433;49.976;8.342;2023-02-02T19:14:26;8.40;99.90
2851;DHT22;1433;49.976;8.342;2023-02-02T19:19:49;8.40;99.90